createdAt,value
2023-02-14T00:01:12.554Z,71.17
2023-02-14T00:03:40.079Z,70.83
2023-02-14T00:06:13.675Z,70.74
2023-02-14T00:08:44.280Z,70.49
2023-02-14T00:11:13.317Z,70.35
2023-02-14T00:13:40.073Z,70.35
2023-02-14T00:16:06.953Z,70.40
2023-02-14T00:18:52.289Z,70.89
2023-02-14T00:21:18.933Z,70.98
2023-02-14T00:23:45.393Z,70.59
2023-02-14T00:26:15.702Z,70.59
2023-02-14T00:28:42.436Z,70.52
2023-02-14T00:31:09.102Z,70.47
2023-02-14T00:33:35.717Z,70.40
2023-02-14T00:36:07.359Z,70.32
2023-02-14T00:38:34.833Z,70.30
2023-02-14T00:41:02.175Z,70.26
2023-02-14T00:43:29.101Z,70.01
2023-02-14T00:45:55.560Z,69.94
2023-02-14T00:48:22.118Z,69.79
2023-02-14T00:50:48.608Z,69.74
2023-02-14T00:53:15.812Z,69.90
2023-02-14T00:55:46.300Z,69.45
2023-02-14T00:58:13.039Z,69.97
2023-02-14T01:00:39.536Z,70.83
2023-02-14T01:03:06.002Z,70.86
2023-02-14T01:05:32.445Z,71.10
2023-02-14T01:07:58.924Z,71.13
2023-02-14T01:10:25.363Z,70.97
2023-02-14T01:12:51.893Z,70.93
2023-02-14T01:15:18.425Z,71.06
2023-02-14T01:17:44.955Z,70.84
2023-02-14T01:20:11.741Z,70.94
2023-02-14T01:22:38.764Z,70.50
2023-02-14T01:25:06.458Z,70.65
2023-02-14T01:27:33.440Z,70.39
2023-02-14T01:29:59.985Z,70.38
2023-02-14T01:32:26.539Z,70.37
2023-02-14T01:34:53.059Z,70.35
2023-02-14T01:37:19.555Z,70.12
2023-02-14T01:39:46.031Z,70.22
2023-02-14T01:42:12.551Z,70.24
2023-02-14T01:44:38.907Z,70.29
2023-02-14T01:47:10.759Z,70.24
2023-02-14T01:50:09.206Z,70.45
2023-02-14T01:52:45.088Z,70.66
2023-02-14T01:55:19.471Z,70.55
2023-02-14T01:57:58.874Z,71.48
2023-02-14T02:00:44.392Z,71.48
2023-02-14T02:03:13.333Z,71.17
2023-02-14T02:05:48.481Z,70.84
2023-02-14T02:08:15.701Z,71.17
2023-02-14T02:10:42.222Z,70.77
2023-02-14T02:13:16.749Z,70.69
2023-02-14T02:16:18.872Z,70.14
2023-02-14T02:19:38.422Z,70.68
2023-02-14T02:22:23.110Z,70.66
2023-02-14T02:25:54.914Z,70.38
2023-02-14T02:28:51.637Z,70.47
2023-02-14T02:32:23.509Z,70.76
2023-02-14T02:35:33.780Z,71.29
2023-02-14T02:38:38.746Z,71.45
2023-02-14T02:41:46.213Z,71.23
2023-02-14T02:44:40.019Z,71.30
2023-02-14T02:47:26.689Z,71.04
2023-02-14T02:50:25.597Z,71.21
2023-02-14T02:53:20.442Z,71.26
2023-02-14T02:56:33.086Z,71.23
2023-02-14T02:59:23.122Z,71.15
2023-02-14T03:01:56.712Z,71.41
2023-02-14T03:04:44.715Z,71.08
2023-02-14T03:07:36.259Z,70.85
2023-02-14T03:10:17.762Z,70.92
2023-02-14T03:13:35.930Z,70.84
2023-02-14T03:16:25.662Z,71.16
2023-02-14T03:19:27.469Z,71.11
2023-02-14T03:22:05.564Z,70.69
2023-02-14T03:24:58.220Z,70.20
2023-02-14T03:27:44.777Z,70.75
2023-02-14T03:30:40.338Z,71.05
2023-02-14T03:33:22.861Z,71.19
2023-02-14T03:36:04.075Z,70.79
2023-02-14T03:38:47.964Z,70.90
2023-02-14T03:41:29.520Z,71.09
2023-02-14T03:44:02.849Z,71.70
2023-02-14T03:46:39.204Z,71.57
2023-02-14T03:49:16.338Z,71.21
2023-02-14T03:51:50.781Z,71.52
2023-02-14T03:54:21.794Z,71.46
2023-02-14T03:56:56.693Z,71.25
2023-02-14T03:59:28.605Z,71.21
2023-02-14T04:02:12.165Z,71.53
2023-02-14T04:04:45.528Z,71.06
2023-02-14T04:07:16.922Z,71.28
2023-02-14T04:09:43.887Z,71.11
2023-02-14T04:12:11.259Z,71.36
2023-02-14T04:14:45.525Z,71.56
2023-02-14T04:17:30.813Z,71.52
2023-02-14T04:19:57.270Z,71.89
2023-02-14T04:22:23.819Z,71.63
2023-02-14T04:24:50.259Z,71.90
2023-02-14T04:27:16.769Z,72.08
2023-02-14T04:29:47.334Z,72.19
2023-02-14T04:32:22.320Z,72.42
2023-02-14T04:34:57.028Z,72.03
2023-02-14T04:37:23.616Z,71.95
2023-02-14T04:39:50.061Z,71.74
2023-02-14T04:42:19.368Z,72.04
2023-02-14T04:44:45.860Z,71.83
2023-02-14T04:47:12.432Z,72.45
2023-02-14T04:49:38.940Z,72.27
2023-02-14T04:52:06.367Z,71.97
2023-02-14T04:54:33.432Z,72.03
2023-02-14T04:57:04.632Z,71.79
2023-02-14T04:59:31.160Z,71.58
2023-02-14T05:01:57.684Z,72.09
2023-02-14T05:04:28.452Z,72.01
2023-02-14T05:06:54.923Z,71.79
2023-02-14T05:09:21.477Z,71.95
2023-02-14T05:11:47.964Z,71.81
2023-02-14T05:14:14.458Z,72.02
2023-02-14T05:16:47.850Z,71.88
2023-02-14T05:19:14.436Z,71.69
2023-02-14T05:21:40.909Z,71.41
2023-02-14T05:24:16.460Z,71.80
2023-02-14T05:26:43.209Z,71.81
2023-02-14T05:29:09.804Z,71.57
2023-02-14T05:31:36.436Z,71.51
2023-02-14T05:34:10.098Z,71.78
2023-02-14T05:36:36.604Z,71.70
2023-02-14T05:39:03.576Z,71.44
2023-02-14T05:41:35.845Z,71.64
2023-02-14T05:44:02.328Z,71.85
2023-02-14T05:46:28.921Z,71.50
2023-02-14T05:48:55.370Z,71.36
2023-02-14T05:51:21.867Z,71.33
2023-02-14T05:53:48.299Z,71.49
2023-02-14T05:56:14.789Z,71.20
2023-02-14T05:58:41.461Z,71.03
2023-02-14T06:01:07.936Z,70.87
2023-02-14T06:03:34.616Z,71.10
2023-02-14T06:06:01.067Z,70.77
2023-02-14T06:08:27.534Z,71.04
2023-02-14T06:10:54.047Z,71.59
2023-02-14T06:13:20.620Z,71.78
2023-02-14T06:15:47.056Z,71.58
2023-02-14T06:18:13.539Z,71.39
2023-02-14T06:20:40.027Z,70.94
2023-02-14T06:23:06.553Z,70.91
2023-02-14T06:25:33.355Z,70.76
2023-02-14T06:28:00.022Z,70.68
2023-02-14T06:30:27.487Z,70.87
2023-02-14T06:32:54.231Z,70.96
2023-02-14T06:35:20.852Z,71.53
2023-02-14T06:37:52.516Z,71.55
2023-02-14T06:40:19.592Z,71.55
2023-02-14T06:42:46.272Z,71.44
2023-02-14T06:45:15.223Z,70.94
2023-02-14T06:47:41.824Z,71.13
2023-02-14T06:50:11.487Z,71.11
2023-02-14T06:52:39.436Z,71.94
2023-02-14T06:55:06.407Z,71.79
2023-02-14T06:57:42.509Z,71.70
2023-02-14T07:00:10.148Z,71.78
2023-02-14T07:02:36.862Z,72.08
2023-02-14T07:05:04.200Z,72.51
2023-02-14T07:07:30.766Z,72.15
2023-02-14T07:09:57.288Z,72.15
2023-02-14T07:12:23.757Z,71.95
2023-02-14T07:14:50.260Z,71.79
2023-02-14T07:17:19.870Z,71.45
2023-02-14T07:19:48.687Z,71.25
2023-02-14T07:22:15.223Z,71.41
2023-02-14T07:24:42.528Z,71.09
2023-02-14T07:27:11.164Z,71.09
2023-02-14T07:29:37.742Z,70.97
2023-02-14T07:32:04.718Z,71.47
2023-02-14T07:34:31.407Z,71.64
2023-02-14T07:37:00.382Z,71.87
2023-02-14T07:39:31.065Z,72.04
2023-02-14T07:41:57.668Z,71.90
2023-02-14T07:44:24.397Z,72.18
2023-02-14T07:46:50.978Z,72.29
2023-02-14T07:49:22.127Z,72.44
2023-02-14T07:51:48.777Z,72.43
2023-02-14T07:54:15.360Z,72.40
2023-02-14T07:56:41.881Z,72.46
2023-02-14T07:59:11.484Z,72.62
2023-02-14T08:01:37.951Z,73.02
2023-02-14T08:04:04.835Z,73.07
2023-02-14T08:06:31.381Z,72.71
2023-02-14T08:09:00.379Z,72.95
2023-02-14T08:11:46.107Z,72.94
2023-02-14T08:14:12.681Z,73.25
2023-02-14T08:16:39.686Z,73.22
2023-02-14T08:19:06.548Z,73.54
2023-02-14T08:21:33.095Z,73.77
2023-02-14T08:23:59.670Z,74.18
2023-02-14T08:26:26.461Z,74.07
2023-02-14T08:28:52.964Z,73.92
2023-02-14T08:31:36.481Z,73.32
2023-02-14T08:34:05.643Z,73.63
2023-02-14T08:36:33.254Z,73.87
2023-02-14T08:39:16.245Z,73.23
2023-02-14T08:41:50.173Z,73.60
2023-02-14T08:44:16.880Z,73.50
2023-02-14T08:46:43.673Z,72.93
2023-02-14T08:49:19.159Z,72.79
2023-02-14T08:51:45.927Z,72.51
2023-02-14T08:54:12.709Z,72.72
2023-02-14T08:56:42.309Z,72.41
2023-02-14T08:59:08.792Z,72.17
2023-02-14T09:01:36.539Z,73.45
2023-02-14T09:04:03.739Z,73.65
2023-02-14T09:06:30.291Z,74.59
2023-02-14T09:09:00.874Z,74.09
2023-02-14T09:11:28.731Z,74.87
2023-02-14T09:13:55.275Z,74.76
2023-02-14T09:16:23.442Z,74.31
2023-02-14T09:18:51.627Z,74.36
2023-02-14T09:21:25.868Z,73.74
2023-02-14T09:23:53.318Z,74.18
2023-02-14T09:26:20.542Z,74.13
2023-02-14T09:28:47.800Z,74.74
2023-02-14T09:31:19.224Z,74.26
2023-02-14T09:34:06.497Z,73.68
2023-02-14T09:36:32.990Z,74.10
2023-02-14T09:38:59.545Z,73.85
2023-02-14T09:41:40.640Z,73.79
2023-02-14T09:44:47.080Z,74.13
2023-02-14T09:48:14.005Z,74.06
2023-02-14T09:50:57.256Z,74.23
2023-02-14T09:53:34.499Z,73.86
2023-02-14T09:56:07.332Z,73.77
2023-02-14T09:58:46.198Z,73.86
2023-02-14T10:01:22.275Z,73.47
2023-02-14T10:04:21.154Z,73.63
2023-02-14T10:06:58.216Z,73.75
2023-02-14T10:09:54.247Z,73.60
2023-02-14T10:12:46.045Z,73.32
2023-02-14T10:15:45.594Z,73.03
2023-02-14T10:18:27.843Z,73.78
2023-02-14T10:21:01.895Z,73.73
2023-02-14T10:23:46.664Z,72.88
2023-02-14T10:26:24.826Z,72.70
2023-02-14T10:28:51.879Z,73.42
2023-02-14T10:31:31.722Z,73.48
2023-02-14T10:34:21.132Z,73.90
2023-02-14T10:37:01.453Z,73.60
2023-02-14T10:40:17.436Z,73.36
2023-02-14T10:43:05.221Z,72.84
2023-02-14T10:45:47.508Z,73.37
2023-02-14T10:49:02.110Z,72.83
2023-02-14T10:51:47.655Z,73.08
2023-02-14T10:54:39.825Z,72.26
2023-02-14T10:57:22.471Z,71.97
2023-02-14T11:00:10.778Z,71.26
2023-02-14T11:02:46.312Z,71.97
2023-02-14T11:05:38.260Z,71.68
2023-02-14T11:08:35.430Z,71.86
2023-02-14T11:11:19.875Z,71.63
2023-02-14T11:13:46.705Z,71.58
2023-02-14T11:16:33.090Z,72.01
2023-02-14T11:19:14.654Z,72.31
2023-02-14T11:21:46.715Z,71.68
2023-02-14T11:24:29.006Z,71.26
2023-02-14T11:27:11.906Z,70.78
2023-02-14T11:29:41.283Z,70.28
2023-02-14T11:32:10.684Z,70.48
2023-02-14T11:34:57.857Z,69.97
2023-02-14T11:37:31.406Z,70.84
2023-02-14T11:40:01.164Z,70.67
2023-02-14T11:42:46.457Z,70.10
2023-02-14T11:45:40.259Z,69.57
2023-02-14T11:48:12.591Z,69.89
2023-02-14T11:50:40.376Z,69.82
2023-02-14T11:53:12.964Z,69.77
2023-02-14T11:55:40.959Z,69.94
2023-02-14T11:58:29.374Z,69.95
2023-02-14T12:00:56.029Z,69.74
2023-02-14T12:03:23.570Z,69.35
2023-02-14T12:05:53.837Z,69.16
2023-02-14T12:08:28.684Z,68.46
2023-02-14T12:11:06.474Z,67.66
2023-02-14T12:13:33.588Z,68.37
2023-02-14T12:16:00.898Z,67.41
2023-02-14T12:18:56.366Z,66.82
2023-02-14T12:21:44.079Z,67.12
2023-02-14T12:24:25.594Z,66.32
2023-02-14T12:27:19.956Z,66.08
2023-02-14T12:30:15.449Z,65.62
2023-02-14T12:32:50.564Z,65.29
2023-02-14T12:35:45.561Z,65.80
2023-02-14T12:38:37.732Z,65.36
2023-02-14T12:41:40.099Z,65.46
2023-02-14T12:44:27.792Z,64.79
2023-02-14T12:47:36.192Z,63.96
2023-02-14T12:50:43.041Z,63.54
2023-02-14T12:53:40.898Z,64.05
2023-02-14T12:56:19.571Z,65.01
2023-02-14T12:59:28.516Z,64.12
2023-02-14T13:02:55.150Z,63.99
2023-02-14T13:05:52.298Z,65.27
2023-02-14T13:08:34.262Z,64.76
2023-02-14T13:11:36.623Z,63.25
2023-02-14T13:14:50.752Z,63.74
2023-02-14T13:17:37.304Z,63.73
2023-02-14T13:20:36.804Z,63.39
2023-02-14T13:23:11.933Z,63.55
2023-02-14T13:25:50.327Z,63.50
2023-02-14T13:28:19.973Z,63.18
2023-02-14T13:30:46.691Z,63.07
2023-02-14T13:33:40.156Z,62.90
2023-02-14T13:36:12.240Z,63.19
2023-02-14T13:38:47.946Z,62.63
2023-02-14T13:41:17.066Z,63.09
2023-02-14T13:44:00.149Z,63.01
2023-02-14T13:46:32.825Z,61.86
2023-02-14T13:49:28.065Z,61.88
2023-02-14T13:51:59.584Z,62.91
2023-02-14T13:54:48.035Z,62.66
2023-02-14T13:57:36.895Z,61.75
2023-02-14T14:00:21.603Z,62.00
2023-02-14T14:02:54.527Z,62.74
2023-02-14T14:05:29.982Z,60.97
2023-02-14T14:08:21.315Z,61.50
2023-02-14T14:10:49.058Z,62.13
2023-02-14T14:13:40.473Z,60.27
2023-02-14T14:16:28.483Z,60.70
2023-02-14T14:19:17.086Z,61.21
2023-02-14T14:22:00.128Z,61.43
2023-02-14T14:24:30.966Z,61.42
2023-02-14T14:27:02.872Z,61.33
2023-02-14T14:29:40.878Z,60.61
2023-02-14T14:32:18.177Z,61.03
2023-02-14T14:34:58.379Z,60.50
2023-02-14T14:37:33.316Z,60.64
2023-02-14T14:40:08.247Z,60.64
2023-02-14T14:42:40.003Z,60.47
2023-02-14T14:45:23.863Z,59.05
2023-02-14T14:47:55.053Z,60.42
2023-02-14T14:50:32.777Z,60.52
2023-02-14T14:53:05.190Z,60.40
2023-02-14T14:55:36.813Z,60.88
2023-02-14T14:58:10.879Z,60.48
2023-02-14T15:00:42.475Z,60.16
2023-02-14T15:03:11.960Z,59.94
2023-02-14T15:05:42.860Z,60.06
2023-02-14T15:08:24.586Z,59.59
2023-02-14T15:11:10.851Z,60.22
2023-02-14T15:13:53.352Z,60.68
2023-02-14T15:16:40.209Z,60.24
2023-02-14T15:19:21.659Z,60.61
2023-02-14T15:21:48.445Z,61.34
2023-02-14T15:24:18.348Z,61.19
2023-02-14T15:26:48.802Z,60.92
2023-02-14T15:29:29.223Z,60.64
2023-02-14T15:32:03.357Z,61.57
2023-02-14T15:34:38.726Z,61.33
2023-02-14T15:37:07.258Z,61.29
2023-02-14T15:39:43.086Z,61.62
2023-02-14T15:42:32.345Z,61.37
2023-02-14T15:45:22.687Z,61.44
2023-02-14T15:47:56.279Z,62.51
2023-02-14T15:50:28.109Z,63.07
2023-02-14T15:53:03.242Z,63.32
2023-02-14T15:55:32.514Z,62.96
2023-02-14T15:58:29.087Z,63.13
2023-02-14T16:00:56.295Z,63.44
2023-02-14T16:03:26.941Z,63.14
2023-02-14T16:05:57.463Z,63.07
2023-02-14T16:08:39.021Z,62.87
2023-02-14T16:11:14.330Z,63.21
2023-02-14T16:13:44.947Z,63.15
2023-02-14T16:16:15.285Z,62.93
2023-02-14T16:18:49.981Z,63.10
2023-02-14T16:21:21.418Z,63.37
2023-02-14T16:24:07.906Z,63.43
2023-02-14T16:26:39.140Z,63.75
2023-02-14T16:29:17.290Z,63.78
2023-02-14T16:32:14.060Z,63.85
2023-02-14T16:34:36.132Z,64.01
2023-02-14T16:37:18.226Z,63.36
2023-02-14T16:39:45.140Z,63.53
2023-02-14T16:42:17.486Z,63.84
2023-02-14T16:44:45.695Z,64.25
2023-02-14T16:47:15.290Z,64.11
2023-02-14T16:49:42.015Z,64.71
2023-02-14T16:52:20.678Z,63.92
2023-02-14T16:54:48.300Z,63.98
2023-02-14T16:57:42.728Z,63.95
2023-02-14T17:00:10.152Z,64.65
2023-02-14T17:02:37.528Z,64.89
2023-02-14T17:05:04.969Z,64.75
2023-02-14T17:07:33.411Z,64.98
2023-02-14T17:10:07.732Z,64.73
2023-02-14T17:12:41.694Z,65.41
2023-02-14T17:15:16.481Z,65.52
2023-02-14T17:17:44.723Z,65.40
2023-02-14T17:20:13.804Z,65.23
2023-02-14T17:22:42.445Z,65.36
2023-02-14T17:25:09.529Z,65.49
2023-02-14T17:27:36.047Z,65.48
2023-02-14T17:30:02.687Z,65.48
2023-02-14T17:32:29.389Z,65.58
2023-02-14T17:34:56.416Z,65.34
2023-02-14T17:37:23.027Z,65.71
2023-02-14T17:39:49.732Z,65.49
2023-02-14T17:42:16.252Z,65.42
2023-02-14T17:44:42.818Z,65.68
2023-02-14T17:47:09.314Z,65.84
2023-02-14T17:49:35.814Z,65.76
2023-02-14T17:52:02.417Z,66.12
2023-02-14T17:54:28.930Z,66.10
2023-02-14T17:57:00.645Z,66.37
2023-02-14T17:59:27.166Z,66.31
2023-02-14T18:01:53.647Z,66.54
2023-02-14T18:04:20.301Z,66.18
2023-02-14T18:06:46.858Z,66.54
2023-02-14T18:09:13.949Z,66.45
2023-02-14T18:11:42.198Z,66.30
2023-02-14T18:14:09.313Z,66.27
2023-02-14T18:16:39.279Z,66.27
2023-02-14T18:19:07.170Z,66.43
2023-02-14T18:21:36.726Z,66.06
2023-02-14T18:24:04.102Z,66.14
2023-02-14T18:26:30.997Z,66.11
2023-02-14T18:28:58.421Z,65.93
2023-02-14T18:31:26.610Z,66.14
2023-02-14T18:33:53.205Z,65.95
2023-02-14T18:36:24.193Z,65.63
2023-02-14T18:38:50.804Z,66.19
2023-02-14T18:41:19.658Z,66.07
2023-02-14T18:43:46.465Z,66.17
2023-02-14T18:46:23.767Z,66.17
2023-02-14T18:48:50.903Z,67.09
2023-02-14T18:51:30.935Z,67.77
2023-02-14T18:53:59.880Z,67.48
2023-02-14T18:56:31.306Z,67.78
2023-02-14T18:59:05.128Z,67.84
2023-02-14T19:01:39.377Z,67.81
2023-02-14T19:04:08.821Z,67.34
2023-02-14T19:06:36.546Z,68.14
2023-02-14T19:09:08.501Z,68.11
2023-02-14T19:11:34.934Z,68.30
2023-02-14T19:14:08.287Z,67.81
2023-02-14T19:16:36.719Z,67.90
2023-02-14T19:19:04.965Z,68.10
2023-02-14T19:21:34.766Z,67.91
2023-02-14T19:24:03.876Z,68.09
2023-02-14T19:26:34.824Z,67.70
2023-02-14T19:29:12.014Z,67.55
2023-02-14T19:31:42.923Z,68.33
2023-02-14T19:34:23.048Z,68.78
2023-02-14T19:36:52.530Z,68.55
2023-02-14T19:39:21.065Z,68.30
2023-02-14T19:41:47.884Z,68.49
2023-02-14T19:44:16.944Z,68.94
2023-02-14T19:46:46.178Z,69.17
2023-02-14T19:49:16.915Z,68.83
2023-02-14T19:51:45.694Z,68.53
2023-02-14T19:54:12.881Z,69.28
2023-02-14T19:56:46.333Z,68.99
2023-02-14T19:59:19.511Z,68.76
2023-02-14T20:01:50.788Z,68.52
2023-02-14T20:04:25.532Z,68.78
2023-02-14T20:06:53.263Z,68.89
2023-02-14T20:09:21.788Z,69.35
2023-02-14T20:11:56.340Z,69.61
2023-02-14T20:14:31.430Z,69.88
2023-02-14T20:17:03.708Z,69.25
2023-02-14T20:19:36.892Z,69.22
2023-02-14T20:22:03.770Z,69.22
2023-02-14T20:24:32.362Z,69.47
2023-02-14T20:27:00.410Z,69.79
2023-02-14T20:29:27.223Z,69.77
2023-02-14T20:32:01.348Z,70.46
2023-02-14T20:34:27.928Z,70.61
2023-02-14T20:36:55.768Z,70.41
2023-02-14T20:39:29.298Z,69.91
2023-02-14T20:41:55.772Z,69.73
2023-02-14T20:44:22.791Z,69.75
2023-02-14T20:46:52.711Z,69.34
2023-02-14T20:49:22.394Z,68.91
2023-02-14T20:51:51.587Z,68.71
2023-02-14T20:54:20.763Z,69.25
2023-02-14T20:56:48.475Z,70.14
2023-02-14T20:59:15.035Z,70.56
2023-02-14T21:01:41.629Z,70.45
2023-02-14T21:04:08.474Z,70.07
2023-02-14T21:06:38.975Z,69.95
2023-02-14T21:09:06.493Z,70.21
2023-02-14T21:11:33.048Z,69.95
2023-02-14T21:14:01.856Z,69.65
2023-02-14T21:16:30.087Z,69.70
2023-02-14T21:18:59.534Z,69.42
2023-02-14T21:21:36.144Z,69.59
2023-02-14T21:24:06.628Z,70.69
2023-02-14T21:26:33.514Z,70.95
2023-02-14T21:29:01.487Z,70.56
2023-02-14T21:31:28.228Z,70.60
2023-02-14T21:33:58.441Z,70.06
2023-02-14T21:36:29.415Z,69.58
2023-02-14T21:38:58.334Z,69.38
2023-02-14T21:41:30.675Z,69.62
2023-02-14T21:43:59.510Z,69.69
2023-02-14T21:46:31.053Z,69.47
2023-02-14T21:49:19.121Z,69.73
2023-02-14T21:51:47.205Z,69.96
2023-02-14T21:54:15.104Z,69.96
2023-02-14T21:56:42.396Z,70.06
2023-02-14T21:59:10.067Z,69.92
2023-02-14T22:01:40.271Z,69.77
2023-02-14T22:04:09.628Z,69.70
2023-02-14T22:06:39.757Z,69.86
2023-02-14T22:09:07.370Z,69.73
2023-02-14T22:11:34.793Z,70.31
2023-02-14T22:14:01.301Z,70.12
2023-02-14T22:16:28.552Z,69.95
2023-02-14T22:18:55.278Z,70.13
2023-02-14T22:21:26.734Z,69.52
2023-02-14T22:23:55.144Z,69.53
2023-02-14T22:26:29.813Z,69.18
2023-02-14T22:28:59.365Z,69.35
2023-02-14T22:31:29.200Z,69.25
2023-02-14T22:33:56.509Z,69.04
2023-02-14T22:36:23.473Z,69.00
2023-02-14T22:38:50.032Z,69.33
2023-02-14T22:41:24.548Z,69.44
2023-02-14T22:43:53.142Z,69.61
2023-02-14T22:46:27.402Z,69.33
2023-02-14T22:48:55.692Z,69.44
2023-02-14T22:51:34.985Z,68.75
2023-02-14T22:54:05.741Z,68.79
2023-02-14T22:56:38.633Z,68.99
2023-02-14T22:59:13.109Z,69.31
2023-02-14T23:01:40.021Z,69.51
2023-02-14T23:04:07.288Z,68.97
2023-02-14T23:06:36.488Z,69.13
2023-02-14T23:09:09.446Z,69.40
2023-02-14T23:11:39.559Z,69.20
2023-02-14T23:14:25.268Z,68.88
2023-02-14T23:17:10.568Z,69.37
2023-02-14T23:19:58.949Z,69.73
2023-02-14T23:22:35.996Z,69.52
2023-02-14T23:25:08.054Z,69.27
2023-02-14T23:27:40.355Z,69.28
2023-02-14T23:30:10.177Z,69.42
2023-02-14T23:32:36.890Z,69.78
2023-02-14T23:35:03.714Z,69.67
2023-02-14T23:37:30.181Z,69.66
2023-02-14T23:39:56.704Z,69.58
2023-02-14T23:42:23.209Z,69.40
2023-02-14T23:44:49.795Z,69.72
2023-02-14T23:47:16.662Z,69.92
2023-02-14T23:49:45.701Z,70.04
2023-02-14T23:52:13.577Z,69.55
2023-02-14T23:54:40.479Z,69.32
2023-02-14T23:57:08.633Z,69.16
2023-02-14T23:59:35.608Z,69.13
